Time;durP1;ratioP1;P1;durP2;ratioP2;P2;SDS_P1;SDS_P2;PMS_P1;PMS_P2;Temp;Humidity;BMP_temperature;BMP_pressure;BME280_temperature;BME280_humidity;BME280_pressure;Samples;Min_cycle;Max_cycle;Signal;HPM_P1;HPM_P2
2022/07/07 00:01:30;;;;;;;2.20;1.55;;;;;;;;;;5062459;28;20428;-69
2022/07/07 00:03:57;;;;;;;2.08;1.75;;;;;;;;;;5066307;28;20500;-69
2022/07/07 00:06:24;;;;;;;4.60;1.45;;;;;;;;;;5065704;28;20213;-69
2022/07/07 00:08:54;;;;;;;2.38;1.55;;;;;;;;;;5066159;28;20404;-69
2022/07/07 00:11:21;;;;;;;1.38;1.20;;;;;;;;;;5066108;28;20400;-69
2022/07/07 00:13:47;;;;;;;1.83;1.42;;;;;;;;;;5065991;28;20197;-69
2022/07/07 00:16:13;;;;;;;2.42;1.40;;;;;;;;;;5065796;28;20540;-69
2022/07/07 00:18:40;;;;;;;3.30;1.55;;;;;;;;;;5065844;28;20204;-69
2022/07/07 00:21:06;;;;;;;2.28;1.67;;;;;;;;;;5065851;28;20220;-69
2022/07/07 00:23:34;;;;;;;1.70;1.60;;;;;;;;;;5065644;28;20205;-69
2022/07/07 00:26:00;;;;;;;1.65;1.60;;;;;;;;;;5065641;28;20220;-69
2022/07/07 00:28:26;;;;;;;4.03;1.55;;;;;;;;;;5065874;28;20205;-69
2022/07/07 00:30:53;;;;;;;3.50;1.77;;;;;;;;;;5065761;28;20201;-69
2022/07/07 00:33:19;;;;;;;2.05;1.80;;;;;;;;;;5065632;28;20224;-69
2022/07/07 00:35:45;;;;;;;3.50;1.88;;;;;;;;;;5065421;28;20539;-69
2022/07/07 00:38:11;;;;;;;1.67;1.58;;;;;;;;;;5065598;28;20211;-69
2022/07/07 00:40:39;;;;;;;2.38;2.00;;;;;;;;;;5065645;28;20205;-69
2022/07/07 00:43:05;;;;;;;1.63;1.52;;;;;;;;;;5065550;28;20519;-69
2022/07/07 00:45:32;;;;;;;3.97;1.90;;;;;;;;;;5065466;28;20200;-69
2022/07/07 00:47:58;;;;;;;1.67;1.58;;;;;;;;;;5065156;28;20276;-69
2022/07/07 00:50:24;;;;;;;3.15;1.77;;;;;;;;;;5065342;28;20205;-69
2022/07/07 00:52:51;;;;;;;2.90;1.85;;;;;;;;;;5065401;28;20197;-69
2022/07/07 00:55:17;;;;;;;2.22;1.73;;;;;;;;;;5065258;28;20213;-69
2022/07/07 00:57:45;;;;;;;1.73;1.65;;;;;;;;;;5065104;28;20205;-69
2022/07/07 01:00:12;;;;;;;2.00;1.90;;;;;;;;;;5065149;28;20263;-69
2022/07/07 01:02:39;;;;;;;6.18;2.08;;;;;;;;;;5065040;28;20197;-69
2022/07/07 01:05:06;;;;;;;2.15;2.05;;;;;;;;;;5065165;28;20213;-69
2022/07/07 01:07:33;;;;;;;4.32;1.50;;;;;;;;;;5065039;28;20511;-69
2022/07/07 01:10:00;;;;;;;4.90;1.70;;;;;;;;;;5065209;28;20204;-69
2022/07/07 01:12:26;;;;;;;2.72;1.77;;;;;;;;;;5065007;28;20204;-69
2022/07/07 01:14:54;;;;;;;1.95;1.60;;;;;;;;;;5064856;28;20212;-69
2022/07/07 01:17:20;;;;;;;2.92;1.73;;;;;;;;;;5064438;28;20197;-69
2022/07/07 01:19:47;;;;;;;1.83;1.73;;;;;;;;;;5064782;28;20209;-69
2022/07/07 01:22:14;;;;;;;4.00;1.73;;;;;;;;;;5064687;28;20505;-69
2022/07/07 01:24:42;;;;;;;1.70;1.60;;;;;;;;;;5064426;28;20504;-69
2022/07/07 01:27:09;;;;;;;1.95;1.55;;;;;;;;;;5064360;28;20201;-69
2022/07/07 01:29:36;;;;;;;3.75;1.77;;;;;;;;;;5064749;28;20431;-68
2022/07/07 01:32:04;;;;;;;2.72;1.90;;;;;;;;;;5064672;28;20200;-68
2022/07/07 01:34:30;;;;;;;3.08;1.60;;;;;;;;;;5064459;28;20197;-68
2022/07/07 01:36:56;;;;;;;2.42;1.90;;;;;;;;;;5064105;28;20217;-68
2022/07/07 01:39:23;;;;;;;2.13;1.85;;;;;;;;;;5064309;28;20205;-69
2022/07/07 01:41:50;;;;;;;3.88;1.63;;;;;;;;;;5064647;28;20197;-69
2022/07/07 01:47:20;;;;;;;1.77;1.50;;;;;;;;;;5063570;28;20191;-69
2022/07/07 01:49:46;;;;;;;2.03;1.50;;;;;;;;;;5064512;28;20198;-69
2022/07/07 01:52:13;;;;;;;2.13;1.52;;;;;;;;;;5064177;28;20197;-69
2022/07/07 01:54:39;;;;;;;3.03;1.88;;;;;;;;;;5064362;28;20358;-69
2022/07/07 01:57:08;;;;;;;2.00;1.75;;;;;;;;;;5063839;28;20422;-69
2022/07/07 01:59:34;;;;;;;1.98;1.77;;;;;;;;;;5064194;28;20201;-69
2022/07/07 02:02:01;;;;;;;2.88;1.70;;;;;;;;;;5063936;28;20196;-69
2022/07/07 02:04:27;;;;;;;3.45;1.70;;;;;;;;;;5064019;28;20225;-69
2022/07/07 02:06:53;;;;;;;3.60;1.90;;;;;;;;;;5063811;28;20217;-69
2022/07/07 02:09:20;;;;;;;2.50;1.90;;;;;;;;;;5063875;28;20197;-69
2022/07/07 02:11:46;;;;;;;2.10;1.90;;;;;;;;;;5063930;28;20208;-69
2022/07/07 02:14:14;;;;;;;4.50;1.60;;;;;;;;;;5063897;28;20535;-69
2022/07/07 02:16:40;;;;;;;3.13;1.73;;;;;;;;;;5063476;28;20244;-68
2022/07/07 02:19:07;;;;;;;2.63;1.80;;;;;;;;;;5063669;28;20251;-68
2022/07/07 02:21:34;;;;;;;2.55;1.75;;;;;;;;;;5063711;28;20204;-69
2022/07/07 02:24:00;;;;;;;2.35;1.85;;;;;;;;;;5063477;28;20196;-69
2022/07/07 02:26:26;;;;;;;3.22;1.48;;;;;;;;;;5063452;28;20392;-69
2022/07/07 02:28:53;;;;;;;3.15;1.63;;;;;;;;;;5063395;28;20205;-69
2022/07/07 02:31:20;;;;;;;2.15;1.83;;;;;;;;;;5063405;28;20204;-69
2022/07/07 02:33:46;;;;;;;2.28;2.00;;;;;;;;;;5063374;28;20201;-69
2022/07/07 02:36:13;;;;;;;1.80;1.70;;;;;;;;;;5063144;28;20521;-69
2022/07/07 02:38:40;;;;;;;2.88;1.88;;;;;;;;;;5063256;28;20197;-69
2022/07/07 02:41:07;;;;;;;3.90;1.60;;;;;;;;;;5063290;28;20204;-69
2022/07/07 02:43:33;;;;;;;4.30;1.60;;;;;;;;;;5063155;28;20201;-69
2022/07/07 02:45:59;;;;;;;1.85;1.50;;;;;;;;;;5063090;28;20247;-69
2022/07/07 02:48:28;;;;;;;7.80;1.80;;;;;;;;;;5063076;28;20197;-69
2022/07/07 02:50:54;;;;;;;3.53;1.65;;;;;;;;;;5063425;28;20228;-69
2022/07/07 02:53:21;;;;;;;3.05;1.73;;;;;;;;;;5063229;28;20197;-69
2022/07/07 02:55:48;;;;;;;5.80;1.65;;;;;;;;;;5062987;28;20223;-69
2022/07/07 02:58:15;;;;;;;1.83;1.67;;;;;;;;;;5062693;28;20205;-69
2022/07/07 03:00:42;;;;;;;6.35;1.73;;;;;;;;;;5063077;28;20434;-69
2022/07/07 03:03:08;;;;;;;2.55;1.70;;;;;;;;;;5063088;28;20280;-69
2022/07/07 03:05:36;;;;;;;4.20;1.63;;;;;;;;;;5062767;28;20217;-69
2022/07/07 03:08:02;;;;;;;5.00;1.85;;;;;;;;;;5062314;28;20205;-69
2022/07/07 03:10:28;;;;;;;2.65;1.58;;;;;;;;;;5062555;28;20466;-69
2022/07/07 03:12:55;;;;;;;3.30;1.73;;;;;;;;;;5062660;28;20204;-69
2022/07/07 03:15:21;;;;;;;1.83;1.77;;;;;;;;;;5062816;28;20517;-69
2022/07/07 03:17:48;;;;;;;2.10;1.55;;;;;;;;;;5062476;28;20197;-69
2022/07/07 03:20:15;;;;;;;3.28;1.90;;;;;;;;;;5062314;28;20205;-69
2022/07/07 03:22:43;;;;;;;4.45;1.60;;;;;;;;;;5062465;28;20208;-69
2022/07/07 03:25:10;;;;;;;5.60;1.67;;;;;;;;;;5062401;28;20243;-69
2022/07/07 03:27:37;;;;;;;2.05;1.92;;;;;;;;;;5062405;28;20200;-69
2022/07/07 03:30:04;;;;;;;3.45;1.60;;;;;;;;;;5062415;28;20201;-69
2022/07/07 03:32:30;;;;;;;5.10;2.30;;;;;;;;;;5062430;28;20204;-69
2022/07/07 03:34:56;;;;;;;5.10;2.28;;;;;;;;;;5062281;28;20243;-69
2022/07/07 03:37:24;;;;;;;2.10;1.90;;;;;;;;;;5061170;28;20221;-69
2022/07/07 03:39:51;;;;;;;4.63;1.70;;;;;;;;;;5062242;28;20211;-69
2022/07/07 03:42:18;;;;;;;3.45;1.70;;;;;;;;;;5062326;28;20201;-69
2022/07/07 03:44:44;;;;;;;3.45;1.63;;;;;;;;;;5062425;28;20200;-69
2022/07/07 03:47:11;;;;;;;1.67;1.60;;;;;;;;;;5061923;28;20236;-69
2022/07/07 03:49:37;;;;;;;3.13;1.80;;;;;;;;;;5062347;28;20324;-69
2022/07/07 03:52:04;;;;;;;1.88;1.60;;;;;;;;;;5062058;28;20201;-69
2022/07/07 03:54:30;;;;;;;1.58;1.42;;;;;;;;;;5062182;28;20205;-69
2022/07/07 03:56:58;;;;;;;2.15;1.80;;;;;;;;;;5062031;28;20217;-69
2022/07/07 03:59:24;;;;;;;1.70;1.60;;;;;;;;;;5062316;28;20212;-69
2022/07/07 04:01:50;;;;;;;4.53;1.48;;;;;;;;;;5062118;28;20197;-68
2022/07/07 04:04:17;;;;;;;2.00;1.90;;;;;;;;;;5062133;28;20200;-68
2022/07/07 04:06:43;;;;;;;3.92;1.58;;;;;;;;;;5061643;28;20248;-68
2022/07/07 04:09:10;;;;;;;1.90;1.80;;;;;;;;;;5061990;28;20204;-68
2022/07/07 04:11:36;;;;;;;4.38;1.83;;;;;;;;;;5062235;28;20197;-68
2022/07/07 04:14:05;;;;;;;6.13;1.67;;;;;;;;;;5061896;28;20197;-68
2022/07/07 04:16:31;;;;;;;2.92;1.70;;;;;;;;;;5061482;28;20213;-68
2022/07/07 04:18:57;;;;;;;3.30;1.85;;;;;;;;;;5061800;28;20205;-68
2022/07/07 04:21:24;;;;;;;4.25;1.67;;;;;;;;;;5061760;28;20235;-68
2022/07/07 04:23:50;;;;;;;2.22;1.80;;;;;;;;;;5061858;28;20197;-68
2022/07/07 04:26:16;;;;;;;5.82;2.10;;;;;;;;;;5061751;28;20365;-68
2022/07/07 04:28:42;;;;;;;2.80;1.70;;;;;;;;;;5061972;28;20213;-67
2022/07/07 04:31:10;;;;;;;2.45;1.65;;;;;;;;;;5061808;28;20197;-67
2022/07/07 04:33:36;;;;;;;4.28;1.70;;;;;;;;;;5062090;28;20204;-69
2022/07/07 04:36:03;;;;;;;4.18;1.70;;;;;;;;;;5061454;28;20519;-68
2022/07/07 04:38:29;;;;;;;5.72;2.10;;;;;;;;;;5061825;28;20204;-68
2022/07/07 04:40:55;;;;;;;3.22;2.00;;;;;;;;;;5061860;28;20197;-68
2022/07/07 04:43:21;;;;;;;6.75;3.20;;;;;;;;;;5061752;28;20201;-68
2022/07/07 04:45:48;;;;;;;2.35;2.15;;;;;;;;;;5061680;28;20497;-68
2022/07/07 04:48:16;;;;;;;6.90;3.15;;;;;;;;;;5062862;28;20193;-68
2022/07/07 04:50:42;;;;;;;4.35;2.47;;;;;;;;;;5065274;28;20205;-68
2022/07/07 04:53:08;;;;;;;3.50;2.50;;;;;;;;;;5065500;28;20223;-68
2022/07/07 04:55:34;;;;;;;4.05;2.08;;;;;;;;;;5065454;28;20253;-68
2022/07/07 04:58:01;;;;;;;3.78;2.00;;;;;;;;;;5065039;28;20217;-68
2022/07/07 05:00:27;;;;;;;1.65;1.65;;;;;;;;;;5065657;28;20262;-68
2022/07/07 05:02:53;;;;;;;3.25;1.70;;;;;;;;;;5065205;28;20288;-68
2022/07/07 05:05:21;;;;;;;2.25;2.03;;;;;;;;;;5064855;28;20217;-68
2022/07/07 05:07:47;;;;;;;1.90;1.80;;;;;;;;;;5064987;28;20196;-68
2022/07/07 05:10:14;;;;;;;6.43;1.98;;;;;;;;;;5064907;28;20197;-65
2022/07/07 05:12:40;;;;;;;4.68;3.45;;;;;;;;;;5064452;28;20209;-60
2022/07/07 05:15:07;;;;;;;3.45;2.47;;;;;;;;;;5064531;28;20559;-60
2022/07/07 05:17:33;;;;;;;3.65;2.33;;;;;;;;;;5061082;28;20213;-60
2022/07/07 05:19:59;;;;;;;3.08;2.50;;;;;;;;;;5052927;28;21224;-61
2022/07/07 05:22:27;;;;;;;1.90;1.80;;;;;;;;;;5057806;28;20254;-61
2022/07/07 05:24:53;;;;;;;2.95;1.88;;;;;;;;;;5044242;28;20417;-62
2022/07/07 05:27:19;;;;;;;5.30;2.28;;;;;;;;;;5052483;28;20234;-59
2022/07/07 05:29:46;;;;;;;4.78;1.80;;;;;;;;;;5057010;28;20255;-59
2022/07/07 05:32:12;;;;;;;5.53;2.05;;;;;;;;;;5058012;28;20216;-59
2022/07/07 05:34:38;;;;;;;4.18;1.65;;;;;;;;;;5057454;28;20213;-61
2022/07/07 05:37:04;;;;;;;5.68;2.53;;;;;;;;;;5057811;28;20320;-62
2022/07/07 05:39:32;;;;;;;4.97;2.28;;;;;;;;;;5050960;28;20209;-61
2022/07/07 05:41:58;;;;;;;5.38;2.13;;;;;;;;;;5056448;28;20532;-61
2022/07/07 05:44:24;;;;;;;2.90;1.88;;;;;;;;;;5052162;28;20433;-61
2022/07/07 05:46:51;;;;;;;1.90;1.80;;;;;;;;;;5053949;28;20450;-61
2022/07/07 05:49:17;;;;;;;4.97;2.25;;;;;;;;;;5051375;28;20216;-60
2022/07/07 05:51:44;;;;;;;2.35;2.00;;;;;;;;;;5056506;28;20770;-60
2022/07/07 05:54:10;;;;;;;2.58;1.95;;;;;;;;;;5056384;28;20251;-60
2022/07/07 05:56:38;;;;;;;2.85;1.63;;;;;;;;;;5056162;28;20229;-60
2022/07/07 05:59:04;;;;;;;2.00;1.90;;;;;;;;;;5055839;28;20278;-60
2022/07/07 06:01:30;;;;;;;4.25;2.15;;;;;;;;;;5055935;28;20217;-60
2022/07/07 06:03:56;;;;;;;3.50;1.85;;;;;;;;;;5056784;28;20213;-61
2022/07/07 06:06:23;;;;;;;3.25;2.00;;;;;;;;;;5055862;28;20237;-59
2022/07/07 06:08:49;;;;;;;2.88;1.92;;;;;;;;;;5041564;28;20206;-60
2022/07/07 06:11:15;;;;;;;3.83;1.77;;;;;;;;;;5039736;28;20335;-60
2022/07/07 06:13:43;;;;;;;4.05;2.20;;;;;;;;;;5055415;28;20221;-60
2022/07/07 06:16:09;;;;;;;1.75;1.65;;;;;;;;;;5038065;28;20217;-60
2022/07/07 06:18:35;;;;;;;4.93;2.08;;;;;;;;;;5051205;28;20302;-60
2022/07/07 06:21:02;;;;;;;2.22;1.98;;;;;;;;;;5051252;28;20213;-60
2022/07/07 06:23:28;;;;;;;5.68;1.95;;;;;;;;;;5055708;28;20259;-60
2022/07/07 06:25:54;;;;;;;3.88;2.08;;;;;;;;;;5055025;28;20221;-60
2022/07/07 06:28:20;;;;;;;6.25;1.85;;;;;;;;;;5054859;28;20406;-59
2022/07/07 06:30:48;;;;;;;8.32;2.90;;;;;;;;;;5036282;28;20229;-61
2022/07/07 06:33:14;;;;;;;2.70;1.92;;;;;;;;;;5043478;28;20284;-60
2022/07/07 06:35:40;;;;;;;4.40;1.92;;;;;;;;;;5035140;28;20260;-61
2022/07/07 06:38:07;;;;;;;3.30;2.10;;;;;;;;;;5044433;28;20229;-61
2022/07/07 06:40:33;;;;;;;2.80;1.88;;;;;;;;;;5040725;28;20220;-60
2022/07/07 06:42:59;;;;;;;4.53;1.90;;;;;;;;;;5045169;28;20222;-61
2022/07/07 06:45:26;;;;;;;3.83;1.88;;;;;;;;;;5053476;28;20284;-61
2022/07/07 06:47:54;;;;;;;5.25;1.98;;;;;;;;;;5044370;28;20213;-60
2022/07/07 06:50:20;;;;;;;5.60;1.83;;;;;;;;;;5038914;28;20256;-61
2022/07/07 06:52:46;;;;;;;1.80;1.70;;;;;;;;;;5035259;28;20214;-61
2022/07/07 06:55:13;;;;;;;5.95;1.90;;;;;;;;;;5039046;28;20517;-61
2022/07/07 06:57:39;;;;;;;3.83;1.80;;;;;;;;;;5034433;28;20256;-60
2022/07/07 07:00:06;;;;;;;1.73;1.58;;;;;;;;;;5050160;28;20209;-60
2022/07/07 07:02:33;;;;;;;4.15;1.70;;;;;;;;;;5051033;28;20244;-60
2022/07/07 07:05:00;;;;;;;7.43;1.80;;;;;;;;;;5046326;28;20276;-60
2022/07/07 07:07:28;;;;;;;6.78;1.65;;;;;;;;;;5045391;28;20439;-60
2022/07/07 07:09:54;;;;;;;5.05;1.48;;;;;;;;;;5053597;28;20213;-60
2022/07/07 07:12:20;;;;;;;3.22;1.30;;;;;;;;;;5043327;28;20214;-60
2022/07/07 07:14:47;;;;;;;4.05;1.83;;;;;;;;;;5040730;28;20406;-61
2022/07/07 07:17:15;;;;;;;3.40;1.80;;;;;;;;;;5043829;28;20298;-62
2022/07/07 07:19:41;;;;;;;9.63;1.33;;;;;;;;;;5052807;28;20266;-60
2022/07/07 07:22:08;;;;;;;1.48;1.20;;;;;;;;;;5038534;28;20275;-61
2022/07/07 07:24:35;;;;;;;1.90;1.50;;;;;;;;;;5035011;28;20213;-60
2022/07/07 07:27:01;;;;;;;2.58;1.10;;;;;;;;;;5050062;28;20394;-60
2022/07/07 07:29:27;;;;;;;5.10;1.60;;;;;;;;;;5033840;28;20537;-58
2022/07/07 07:31:53;;;;;;;2.22;1.50;;;;;;;;;;5033593;28;20455;-60
2022/07/07 07:34:20;;;;;;;1.52;1.30;;;;;;;;;;5033763;28;20228;-61
2022/07/07 07:36:46;;;;;;;1.80;1.45;;;;;;;;;;5036593;28;20212;-61
2022/07/07 07:39:14;;;;;;;3.90;1.08;;;;;;;;;;5053537;28;20217;-60
2022/07/07 07:41:40;;;;;;;2.35;1.27;;;;;;;;;;5053445;28;20223;-60
2022/07/07 07:44:06;;;;;;;3.25;1.65;;;;;;;;;;5050215;28;20574;-60
2022/07/07 07:46:32;;;;;;;2.42;1.30;;;;;;;;;;5049830;28;20220;-60
2022/07/07 07:49:00;;;;;;;3.00;1.27;;;;;;;;;;5053176;28;20217;-61
2022/07/07 07:51:26;;;;;;;3.15;1.15;;;;;;;;;;5050660;28;20220;-60
2022/07/07 07:53:52;;;;;;;2.00;1.38;;;;;;;;;;5035671;28;20217;-60
2022/07/07 07:56:20;;;;;;;4.32;1.83;;;;;;;;;;5044067;28;20214;-60
2022/07/07 07:58:46;;;;;;;3.20;2.20;;;;;;;;;;5050747;28;20298;-58
2022/07/07 08:01:12;;;;;;;2.90;2.20;;;;;;;;;;5044159;28;20213;-60
2022/07/07 08:03:39;;;;;;;6.05;2.30;;;;;;;;;;5033792;28;20505;-60
2022/07/07 08:06:05;;;;;;;4.00;1.88;;;;;;;;;;5034008;28;20599;-61
2022/07/07 08:08:31;;;;;;;2.40;1.77;;;;;;;;;;5049317;28;20209;-60
2022/07/07 08:10:57;;;;;;;4.45;2.40;;;;;;;;;;5050917;28;20263;-60
2022/07/07 08:13:25;;;;;;;2.97;1.75;;;;;;;;;;5045951;28;20252;-61
2022/07/07 08:15:51;;;;;;;8.45;1.63;;;;;;;;;;5037448;28;20276;-60
2022/07/07 08:18:18;;;;;;;3.25;1.50;;;;;;;;;;5033323;28;20237;-60
2022/07/07 08:20:44;;;;;;;4.03;1.58;;;;;;;;;;5039722;28;20214;-60
2022/07/07 08:23:10;;;;;;;8.68;1.85;;;;;;;;;;5035651;28;20221;-60
2022/07/07 08:25:36;;;;;;;2.55;1.17;;;;;;;;;;5044951;28;20239;-59
2022/07/07 08:28:03;;;;;;;1.98;1.38;;;;;;;;;;5046273;28;20210;-60
2022/07/07 08:30:30;;;;;;;5.43;1.90;;;;;;;;;;5043709;28;20296;-60
2022/07/07 08:32:57;;;;;;;9.15;1.77;;;;;;;;;;5057159;28;20520;-60
2022/07/07 08:35:23;;;;;;;2.88;1.25;;;;;;;;;;5039045;28;20205;-59
2022/07/07 08:37:49;;;;;;;3.10;1.52;;;;;;;;;;5047058;28;20225;-60
2022/07/07 08:40:16;;;;;;;1.88;1.50;;;;;;;;;;5048228;28;20213;-60
2022/07/07 08:42:43;;;;;;;7.40;1.90;;;;;;;;;;5039819;28;20222;-60
2022/07/07 08:45:09;;;;;;;4.95;2.05;;;;;;;;;;5041019;28;20570;-60
2022/07/07 08:47:37;;;;;;;4.35;1.73;;;;;;;;;;5037058;28;20251;-60
2022/07/07 08:50:04;;;;;;;1.75;1.65;;;;;;;;;;5045097;28;20270;-60
2022/07/07 08:52:31;;;;;;;1.85;1.40;;;;;;;;;;5053030;28;20235;-60
2022/07/07 08:54:57;;;;;;;4.55;1.77;;;;;;;;;;5046114;28;20374;-60
2022/07/07 08:57:24;;;;;;;5.70;1.80;;;;;;;;;;5036549;28;20218;-61
2022/07/07 08:59:50;;;;;;;4.07;1.80;;;;;;;;;;5036650;28;20220;-58
2022/07/07 09:02:17;;;;;;;2.28;1.65;;;;;;;;;;5051795;28;20216;-60
2022/07/07 09:04:44;;;;;;;6.70;1.60;;;;;;;;;;5050131;28;21412;-60
2022/07/07 09:07:10;;;;;;;2.60;1.50;;;;;;;;;;5039144;28;20214;-59
2022/07/07 09:09:41;;;;;;;6.90;1.83;;;;;;;;;;5037204;28;20218;-60
2022/07/07 09:12:08;;;;;;;3.28;1.48;;;;;;;;;;5035875;28;20225;-61
2022/07/07 09:14:36;;;;;;;3.13;1.83;;;;;;;;;;5039783;28;20206;-60
2022/07/07 09:17:03;;;;;;;2.08;1.48;;;;;;;;;;5052632;28;20220;-60
2022/07/07 09:19:29;;;;;;;5.25;1.60;;;;;;;;;;5055823;28;20236;-61
2022/07/07 09:21:57;;;;;;;1.75;1.40;;;;;;;;;;5045047;28;20217;-61
2022/07/07 09:24:23;;;;;;;4.53;1.48;;;;;;;;;;5035919;28;20214;-60
2022/07/07 09:26:52;;;;;;;3.47;1.30;;;;;;;;;;5035969;28;20222;-61
2022/07/07 09:29:19;;;;;;;4.82;1.40;;;;;;;;;;5042113;28;20281;-59
2022/07/07 09:31:52;;;;;;;4.25;1.40;;;;;;;;;;5056103;28;20229;-61
2022/07/07 09:34:19;;;;;;;4.25;1.70;;;;;;;;;;5052263;28;20370;-61
2022/07/07 09:39:40;;;;;;;1.95;1.60;;;;;;;;;;5052663;28;20235;-60
2022/07/07 09:42:17;;;;;;;7.50;1.95;;;;;;;;;;5052787;28;20209;-61
2022/07/07 09:44:43;;;;;;;2.22;1.60;;;;;;;;;;5054209;28;20259;-61
2022/07/07 09:47:10;;;;;;;3.38;1.45;;;;;;;;;;5056252;28;20296;-60
2022/07/07 09:49:41;;;;;;;4.43;1.65;;;;;;;;;;5039693;28;20209;-60
2022/07/07 09:52:14;;;;;;;3.30;1.40;;;;;;;;;;5052764;28;20217;-60
2022/07/07 09:54:46;;;;;;;2.60;1.20;;;;;;;;;;5056268;28;20528;-60
2022/07/07 09:57:12;;;;;;;2.88;1.40;;;;;;;;;;5055138;28;20217;-60
2022/07/07 09:59:38;;;;;;;2.03;1.10;;;;;;;;;;5044056;28;20229;-60
2022/07/07 10:02:05;;;;;;;2.85;1.02;;;;;;;;;;5039874;28;20217;-61
2022/07/07 10:04:31;;;;;;;3.03;0.98;;;;;;;;;;5054700;28;20220;-61
2022/07/07 10:06:59;;;;;;;1.63;0.82;;;;;;;;;;5055751;28;20208;-60
2022/07/07 10:09:26;;;;;;;3.03;1.15;;;;;;;;;;5054230;28;20235;-62
2022/07/07 10:11:55;;;;;;;5.70;1.65;;;;;;;;;;5055122;28;20224;-60
2022/07/07 10:14:22;;;;;;;2.72;1.30;;;;;;;;;;5042995;28;20256;-62
2022/07/07 10:16:49;;;;;;;1.50;1.40;;;;;;;;;;5035405;28;20468;-60
2022/07/07 10:19:16;;;;;;;3.83;1.63;;;;;;;;;;5033997;28;20583;-60
2022/07/07 10:21:43;;;;;;;1.10;1.10;;;;;;;;;;5035908;28;20224;-61
2022/07/07 10:24:10;;;;;;;3.55;1.35;;;;;;;;;;5046520;28;20312;-61
2022/07/07 10:26:38;;;;;;;7.75;1.42;;;;;;;;;;5051862;28;20220;-60
2022/07/07 10:29:06;;;;;;;1.50;1.02;;;;;;;;;;5052417;28;20209;-60
2022/07/07 10:31:32;;;;;;;4.60;1.13;;;;;;;;;;5055960;28;20220;-60
2022/07/07 10:34:00;;;;;;;1.23;1.05;;;;;;;;;;5056395;28;20216;-60
2022/07/07 10:36:27;;;;;;;1.85;1.20;;;;;;;;;;5046154;28;20255;-61
2022/07/07 10:38:54;;;;;;;1.27;1.15;;;;;;;;;;5056085;28;20464;-61
2022/07/07 10:41:22;;;;;;;1.13;1.13;;;;;;;;;;5055293;28;20219;-60
2022/07/07 10:43:53;;;;;;;2.65;1.63;;;;;;;;;;5055276;28;20213;-59
2022/07/07 10:46:21;;;;;;;9.70;1.67;;;;;;;;;;5053701;28;20256;-61
2022/07/07 10:48:49;;;;;;;3.17;1.48;;;;;;;;;;5055468;28;20216;-61
2022/07/07 10:51:16;;;;;;;1.55;1.48;;;;;;;;;;5054642;28;20397;-60
2022/07/07 10:53:54;;;;;;;1.30;1.30;;;;;;;;;;5041712;28;20217;-60
2022/07/07 10:56:20;;;;;;;2.95;1.42;;;;;;;;;;5034053;28;20216;-60
2022/07/07 10:58:56;;;;;;;2.17;1.40;;;;;;;;;;5048792;28;20462;-60
2022/07/07 11:01:25;;;;;;;3.70;1.70;;;;;;;;;;5054256;28;20221;-60
2022/07/07 11:03:51;;;;;;;2.67;1.35;;;;;;;;;;5054938;28;20213;-60
2022/07/07 11:06:17;;;;;;;3.45;1.55;;;;;;;;;;5053593;28;20553;-60
2022/07/07 11:08:54;;;;;;;1.52;1.27;;;;;;;;;;5053792;28;20209;-59
2022/07/07 11:11:21;;;;;;;3.22;1.50;;;;;;;;;;5053071;28;20258;-60
2022/07/07 11:13:47;;;;;;;2.90;1.40;;;;;;;;;;5054513;28;20274;-60
2022/07/07 11:16:15;;;;;;;7.20;1.60;;;;;;;;;;5050853;28;20209;-60
2022/07/07 11:18:43;;;;;;;1.65;1.45;;;;;;;;;;5034119;28;20229;-60
2022/07/07 11:21:09;;;;;;;6.43;1.80;;;;;;;;;;5034370;28;20256;-60
2022/07/07 11:23:48;;;;;;;2.33;1.45;;;;;;;;;;5035022;28;20525;-61
2022/07/07 11:26:17;;;;;;;1.55;1.50;;;;;;;;;;5052359;28;20952;-60
2022/07/07 11:28:43;;;;;;;2.05;1.80;;;;;;;;;;5040486;28;20211;-61
2022/07/07 11:31:10;;;;;;;1.67;1.40;;;;;;;;;;5034831;28;20221;-61
2022/07/07 11:33:38;;;;;;;1.90;1.52;;;;;;;;;;5046085;28;20220;-61
2022/07/07 11:36:13;;;;;;;2.45;1.90;;;;;;;;;;5047074;28;20213;-61
2022/07/07 11:38:40;;;;;;;3.55;1.25;;;;;;;;;;5050721;28;20273;-61
2022/07/07 11:41:06;;;;;;;3.42;1.30;;;;;;;;;;5054190;28;20216;-61
2022/07/07 11:43:33;;;;;;;2.67;1.35;;;;;;;;;;5054167;28;20217;-61
2022/07/07 11:45:59;;;;;;;2.60;1.02;;;;;;;;;;5042771;28;20214;-61
2022/07/07 11:48:32;;;;;;;2.03;1.40;;;;;;;;;;5052758;28;20213;-61
2022/07/07 11:50:58;;;;;;;3.95;1.10;;;;;;;;;;5054075;28;20220;-61
2022/07/07 11:53:26;;;;;;;2.08;1.38;;;;;;;;;;5054349;28;20213;-61
2022/07/07 11:55:52;;;;;;;3.63;1.20;;;;;;;;;;5034769;28;20214;-61
2022/07/07 11:58:18;;;;;;;3.67;1.27;;;;;;;;;;5047181;28;20442;-61
2022/07/07 12:00:45;;;;;;;4.50;1.80;;;;;;;;;;5045681;28;20297;-61
2022/07/07 12:03:11;;;;;;;3.17;1.27;;;;;;;;;;5041144;28;20216;-61
2022/07/07 12:05:43;;;;;;;1.85;1.20;;;;;;;;;;5033549;28;20252;-61
2022/07/07 12:08:11;;;;;;;3.22;1.40;;;;;;;;;;5033992;28;20239;-61
2022/07/07 12:10:41;;;;;;;3.55;1.50;;;;;;;;;;5041240;28;20280;-61
2022/07/07 12:13:08;;;;;;;3.33;1.52;;;;;;;;;;5053837;28;20243;-61
2022/07/07 12:15:35;;;;;;;3.75;1.50;;;;;;;;;;5042091;28;20440;-61
2022/07/07 12:18:01;;;;;;;1.65;1.50;;;;;;;;;;5046004;28;20209;-61
2022/07/07 12:20:28;;;;;;;8.23;1.50;;;;;;;;;;5039842;28;20237;-61
2022/07/07 12:22:55;;;;;;;3.72;1.48;;;;;;;;;;5034551;28;20214;-60
2022/07/07 12:25:21;;;;;;;16.90;2.05;;;;;;;;;;5041937;28;20556;-61
2022/07/07 12:27:59;;;;;;;6.95;1.75;;;;;;;;;;5043605;28;20212;-61
2022/07/07 12:30:26;;;;;;;2.72;1.17;;;;;;;;;;5046272;28;20213;-61
2022/07/07 12:32:53;;;;;;;1.52;1.25;;;;;;;;;;5048672;28;20217;-61
2022/07/07 12:35:26;;;;;;;3.42;1.48;;;;;;;;;;5053305;28;20568;-61
2022/07/07 12:37:52;;;;;;;2.63;1.60;;;;;;;;;;5053012;28;20260;-60
2022/07/07 12:40:19;;;;;;;1.60;1.27;;;;;;;;;;5053514;28;20420;-61
2022/07/07 12:42:46;;;;;;;4.65;1.55;;;;;;;;;;5036605;28;20214;-61
2022/07/07 12:45:14;;;;;;;5.15;1.70;;;;;;;;;;5048595;28;20560;-61
2022/07/07 12:47:44;;;;;;;24.85;3.10;;;;;;;;;;5050076;28;20221;-61
2022/07/07 12:50:11;;;;;;;1.80;1.40;;;;;;;;;;5054028;28;20255;-61
2022/07/07 12:52:37;;;;;;;6.40;1.77;;;;;;;;;;5052947;28;20241;-61
2022/07/07 12:55:08;;;;;;;5.18;1.55;;;;;;;;;;5054428;28;20213;-61
2022/07/07 12:57:34;;;;;;;3.75;1.23;;;;;;;;;;5046817;28;20575;-61
2022/07/07 13:00:00;;;;;;;2.55;1.25;;;;;;;;;;5044906;28;20236;-61
2022/07/07 13:02:28;;;;;;;6.32;1.30;;;;;;;;;;5053044;28;20517;-60
2022/07/07 13:04:54;;;;;;;3.28;1.50;;;;;;;;;;5053528;28;20229;-60
2022/07/07 13:07:22;;;;;;;4.53;1.70;;;;;;;;;;5038813;28;20210;-60
2022/07/07 13:09:48;;;;;;;1.65;1.55;;;;;;;;;;5035431;28;20218;-60
2022/07/07 13:12:15;;;;;;;1.73;1.20;;;;;;;;;;5036322;28;20214;-60
2022/07/07 13:14:42;;;;;;;2.45;1.33;;;;;;;;;;5039582;28;20232;-60
2022/07/07 13:17:09;;;;;;;4.85;1.35;;;;;;;;;;5036754;28;20214;-60
2022/07/07 13:19:36;;;;;;;1.20;1.10;;;;;;;;;;5036455;28;20619;-61
2022/07/07 13:22:04;;;;;;;1.40;1.30;;;;;;;;;;5041517;28;20213;-60
2022/07/07 13:24:30;;;;;;;6.43;1.50;;;;;;;;;;5036443;28;20279;-61
2022/07/07 13:26:57;;;;;;;2.35;1.30;;;;;;;;;;5036809;28;20213;-61
2022/07/07 13:29:23;;;;;;;2.67;1.17;;;;;;;;;;5036972;28;20426;-59
2022/07/07 13:31:49;;;;;;;1.55;1.45;;;;;;;;;;5042210;28;20209;-60
2022/07/07 13:34:16;;;;;;;2.40;1.38;;;;;;;;;;5059005;28;20234;-60
2022/07/07 13:36:44;;;;;;;2.65;1.23;;;;;;;;;;5058425;28;20525;-60
2022/07/07 13:39:10;;;;;;;3.25;1.23;;;;;;;;;;5058391;28;20465;-60
2022/07/07 13:41:36;;;;;;;1.48;1.35;;;;;;;;;;5058379;28;20543;-60
2022/07/07 13:44:03;;;;;;;2.42;1.40;;;;;;;;;;5058517;28;20208;-61
2022/07/07 13:46:30;;;;;;;1.40;1.30;;;;;;;;;;5064116;28;20197;-61
2022/07/07 13:48:56;;;;;;;3.25;1.50;;;;;;;;;;5064709;28;20197;-60
2022/07/07 13:51:22;;;;;;;1.65;1.55;;;;;;;;;;5064448;28;20410;-61
2022/07/07 13:53:50;;;;;;;4.20;1.38;;;;;;;;;;5064172;28;20223;-60
2022/07/07 13:56:16;;;;;;;3.88;1.20;;;;;;;;;;5063914;28;20243;-60
2022/07/07 13:58:42;;;;;;;3.25;1.60;;;;;;;;;;5063923;28;20205;-60
2022/07/07 14:01:09;;;;;;;1.75;1.20;;;;;;;;;;5064248;28;20303;-60
2022/07/07 14:03:36;;;;;;;3.40;1.35;;;;;;;;;;5064287;28;20607;-60
2022/07/07 14:06:02;;;;;;;1.85;1.25;;;;;;;;;;5063913;28;20217;-60
2022/07/07 14:08:28;;;;;;;3.65;1.23;;;;;;;;;;5063987;28;20258;-60
2022/07/07 14:10:56;;;;;;;3.45;1.40;;;;;;;;;;5063841;28;20193;-60
2022/07/07 14:13:22;;;;;;;3.75;1.00;;;;;;;;;;5064221;28;20519;-60
2022/07/07 14:15:48;;;;;;;4.43;1.10;;;;;;;;;;5063930;28;20212;-60
2022/07/07 14:18:15;;;;;;;7.53;1.13;;;;;;;;;;5063685;28;20197;-60
2022/07/07 14:20:41;;;;;;;0.90;0.90;;;;;;;;;;5062811;28;20224;-60
2022/07/07 14:23:07;;;;;;;2.38;0.80;;;;;;;;;;5063721;28;20235;-60
2022/07/07 14:25:34;;;;;;;1.92;0.65;;;;;;;;;;5063597;28;20204;-60
2022/07/07 14:28:01;;;;;;;0.70;0.70;;;;;;;;;;5063388;28;20189;-60
2022/07/07 14:30:27;;;;;;;2.08;0.73;;;;;;;;;;5063675;28;20251;-60
2022/07/07 14:32:54;;;;;;;3.03;0.63;;;;;;;;;;5063715;28;20205;-60
2022/07/07 14:35:20;;;;;;;2.45;0.80;;;;;;;;;;5063629;28;20197;-60
2022/07/07 14:37:46;;;;;;;0.82;0.65;;;;;;;;;;5063232;28;20201;-60
2022/07/07 14:40:12;;;;;;;2.78;0.98;;;;;;;;;;5063151;28;20263;-60
2022/07/07 14:42:39;;;;;;;1.85;0.60;;;;;;;;;;5063548;28;20267;-60
2022/07/07 14:45:07;;;;;;;0.90;0.90;;;;;;;;;;5063393;28;20197;-60
2022/07/07 14:47:33;;;;;;;0.60;0.60;;;;;;;;;;5063113;28;20220;-60